createdAt,value
2019-01-30T00:00:59.208Z,95.88
2019-01-30T00:01:59.158Z,96.35
2019-01-30T00:02:59.123Z,95.97
2019-01-30T00:03:59.098Z,95.97
2019-01-30T00:04:59.062Z,96.07
2019-01-30T00:05:59.003Z,95.88
2019-01-30T00:06:58.961Z,95.97
2019-01-30T00:07:58.931Z,95.78
2019-01-30T00:08:58.894Z,95.97
2019-01-30T00:09:58.855Z,96.35
2019-01-30T00:10:58.828Z,96.07
2019-01-30T00:11:58.773Z,96.35
2019-01-30T00:12:58.727Z,96.16
2019-01-30T00:13:58.707Z,95.88
2019-01-30T00:14:58.661Z,96.26
2019-01-30T00:15:58.632Z,96.26
2019-01-30T00:16:58.586Z,96.07
2019-01-30T00:17:58.542Z,96.16
2019-01-30T00:18:58.496Z,95.88
2019-01-30T00:19:58.467Z,96.26
2019-01-30T00:20:58.421Z,95.88
2019-01-30T00:21:58.397Z,95.88
2019-01-30T00:22:58.340Z,96.07
2019-01-30T00:23:58.304Z,95.88
2019-01-30T00:24:58.278Z,96.07
2019-01-30T00:25:58.229Z,95.78
2019-01-30T00:26:58.202Z,95.97
2019-01-30T00:27:58.152Z,96.07
2019-01-30T00:28:58.102Z,96.16
2019-01-30T00:30:04.137Z,95.88
2019-01-30T00:30:58.032Z,96.16
2019-01-30T00:31:57.992Z,95.97
2019-01-30T00:32:57.952Z,96.07
2019-01-30T00:33:57.915Z,96.07
2019-01-30T00:34:57.880Z,95.69
2019-01-30T00:35:57.834Z,95.69
2019-01-30T00:36:57.799Z,95.78
2019-01-30T00:37:58.619Z,96.26
2019-01-30T00:38:57.725Z,95.69
2019-01-30T00:39:57.685Z,95.88
2019-01-30T00:40:57.649Z,95.59
2019-01-30T00:41:57.610Z,96.07
2019-01-30T00:42:57.575Z,96.07
2019-01-30T00:43:57.538Z,95.97
2019-01-30T00:44:57.497Z,96.26
2019-01-30T00:45:57.448Z,96.26
2019-01-30T00:46:57.408Z,95.88
2019-01-30T00:47:57.384Z,96.07
2019-01-30T00:48:57.329Z,95.69
2019-01-30T00:49:57.296Z,96.16
2019-01-30T00:50:57.256Z,96.16
2019-01-30T00:51:57.216Z,95.97
2019-01-30T00:52:57.179Z,96.45
2019-01-30T00:53:57.140Z,96.45
2019-01-30T00:54:57.101Z,95.88
2019-01-30T00:55:57.061Z,96.07
2019-01-30T00:56:57.016Z,96.26
2019-01-30T00:57:56.979Z,96.07
2019-01-30T00:58:56.936Z,96.45
2019-01-30T00:59:56.907Z,96.26
2019-01-30T01:00:58.308Z,95.88
2019-01-30T01:01:56.831Z,96.45
2019-01-30T01:02:56.789Z,95.88
2019-01-30T01:03:56.740Z,96.07
2019-01-30T01:04:56.705Z,96.26
2019-01-30T01:05:56.675Z,96.26
2019-01-30T01:06:56.627Z,96.16
2019-01-30T01:07:56.591Z,96.07
2019-01-30T01:08:56.549Z,95.88
2019-01-30T01:09:56.517Z,96.07
2019-01-30T01:10:56.475Z,96.16
2019-01-30T01:11:56.442Z,96.45
2019-01-30T01:12:56.402Z,96.26
2019-01-30T01:13:56.358Z,96.16
2019-01-30T01:14:56.315Z,96.26
2019-01-30T01:15:56.281Z,96.26
2019-01-30T01:16:56.233Z,96.26
2019-01-30T01:17:56.209Z,96.45
2019-01-30T01:18:56.162Z,96.26
2019-01-30T01:19:56.129Z,96.35
2019-01-30T01:20:56.078Z,96.26
2019-01-30T01:21:56.036Z,96.16
2019-01-30T01:22:56.015Z,96.16
2019-01-30T01:23:55.973Z,96.16
2019-01-30T01:24:55.930Z,95.88
2019-01-30T01:25:55.886Z,96.26
2019-01-30T01:26:55.842Z,96.64
2019-01-30T01:27:55.810Z,96.45
2019-01-30T01:28:55.775Z,96.26
2019-01-30T01:29:55.725Z,96.26
2019-01-30T01:30:55.685Z,96.26
2019-01-30T01:31:55.659Z,96.45
2019-01-30T01:32:55.619Z,96.45
2019-01-30T01:33:55.576Z,96.16
2019-01-30T01:34:55.540Z,96.35
2019-01-30T01:35:55.491Z,96.16
2019-01-30T01:36:55.458Z,96.45
2019-01-30T01:37:55.413Z,96.73
2019-01-30T01:38:55.377Z,96.54
2019-01-30T01:39:55.342Z,96.16
2019-01-30T01:40:55.306Z,96.16
2019-01-30T01:41:55.266Z,96.26
2019-01-30T01:42:55.226Z,96.07
2019-01-30T01:43:55.178Z,96.35
2019-01-30T01:44:55.148Z,96.16
2019-01-30T01:45:55.098Z,96.16
2019-01-30T01:46:55.071Z,95.97
2019-01-30T01:47:55.036Z,96.16
2019-01-30T01:48:54.994Z,96.92
2019-01-30T01:49:54.948Z,96.35
2019-01-30T01:50:54.903Z,96.26
2019-01-30T01:51:54.873Z,96.26
2019-01-30T01:52:54.843Z,96.26
2019-01-30T01:53:54.789Z,96.26
2019-01-30T01:54:54.754Z,96.26
2019-01-30T01:55:54.721Z,96.64
2019-01-30T01:56:54.680Z,96.45
2019-01-30T01:57:54.637Z,96.26
2019-01-30T01:58:54.597Z,96.16
2019-01-30T01:59:54.561Z,96.16
2019-01-30T02:00:54.518Z,96.45
2019-01-30T02:01:54.473Z,96.35
2019-01-30T02:02:54.439Z,96.45
2019-01-30T02:03:54.394Z,96.16
2019-01-30T02:04:54.360Z,96.35
2019-01-30T02:05:54.319Z,96.16
2019-01-30T02:06:54.284Z,96.26
2019-01-30T02:07:54.247Z,95.69
2019-01-30T02:08:54.210Z,96.26
2019-01-30T02:09:54.169Z,96.64
2019-01-30T02:10:54.124Z,96.45
2019-01-30T02:11:54.093Z,95.97
2019-01-30T02:12:54.054Z,96.26
2019-01-30T02:13:54.008Z,96.35
2019-01-30T02:14:53.963Z,96.16
2019-01-30T02:15:53.933Z,96.35
2019-01-30T02:16:53.895Z,96.35
2019-01-30T02:17:53.855Z,96.02
2019-01-30T02:18:53.814Z,96.26
2019-01-30T02:19:53.771Z,96.45
2019-01-30T02:20:53.739Z,96.16
2019-01-30T02:21:53.696Z,96.64
2019-01-30T02:22:53.655Z,96.35
2019-01-30T02:23:53.608Z,96.45
2019-01-30T02:24:53.588Z,96.54
2019-01-30T02:25:53.554Z,96.21
2019-01-30T02:26:53.503Z,96.73
2019-01-30T02:27:53.471Z,96.12
2019-01-30T02:28:53.423Z,96.50
2019-01-30T02:29:53.380Z,96.45
2019-01-30T02:30:53.354Z,96.59
2019-01-30T02:31:53.304Z,96.12
2019-01-30T02:32:53.263Z,96.59
2019-01-30T02:33:53.225Z,97.16
2019-01-30T02:34:53.185Z,96.26
2019-01-30T02:35:53.150Z,96.40
2019-01-30T02:36:53.111Z,96.59
2019-01-30T02:37:53.081Z,96.78
2019-01-30T02:38:53.035Z,96.12
2019-01-30T02:39:52.986Z,96.78
2019-01-30T02:40:52.958Z,96.31
2019-01-30T02:41:52.911Z,96.59
2019-01-30T02:42:52.874Z,96.12
2019-01-30T02:43:52.836Z,97.06
2019-01-30T02:44:52.793Z,96.31
2019-01-30T02:45:52.754Z,96.40
2019-01-30T02:46:52.709Z,96.12
2019-01-30T02:47:52.691Z,97.16
2019-01-30T02:48:52.629Z,97.06
2019-01-30T02:49:52.596Z,96.78
2019-01-30T02:50:52.554Z,96.40
2019-01-30T02:51:52.532Z,96.31
2019-01-30T02:52:52.474Z,97.06
2019-01-30T02:53:52.456Z,97.06
2019-01-30T02:54:52.398Z,97.06
2019-01-30T02:55:52.356Z,97.06
2019-01-30T02:56:52.331Z,96.31
2019-01-30T02:57:52.278Z,96.88
2019-01-30T02:58:52.245Z,97.06
2019-01-30T02:59:52.199Z,96.97
2019-01-30T03:00:58.987Z,96.97
2019-01-30T03:01:52.130Z,96.69
2019-01-30T03:02:52.093Z,96.78
2019-01-30T03:03:52.046Z,96.78
2019-01-30T03:04:52.017Z,97.06
2019-01-30T03:05:51.978Z,97.06
2019-01-30T03:06:51.927Z,96.78
2019-01-30T03:07:51.886Z,96.78
2019-01-30T03:08:51.837Z,96.78
2019-01-30T03:09:51.806Z,96.88
2019-01-30T03:10:51.771Z,96.97
2019-01-30T03:11:51.732Z,96.69
2019-01-30T03:12:51.682Z,96.97
2019-01-30T03:13:51.647Z,96.97
2019-01-30T03:14:51.608Z,96.97
2019-01-30T03:15:51.578Z,96.88
2019-01-30T03:16:51.536Z,96.88
2019-01-30T03:17:51.498Z,96.88
2019-01-30T03:18:51.445Z,96.69
2019-01-30T03:19:51.416Z,96.69
2019-01-30T03:20:51.376Z,96.97
2019-01-30T03:21:51.331Z,96.78
2019-01-30T03:22:51.298Z,96.69
2019-01-30T03:23:51.264Z,96.59
2019-01-30T03:24:51.219Z,96.78
2019-01-30T03:25:51.181Z,97.16
2019-01-30T03:26:51.147Z,96.78
2019-01-30T03:27:51.098Z,96.78
2019-01-30T03:28:51.057Z,97.06
2019-01-30T03:29:51.026Z,97.06
2019-01-30T03:30:51.063Z,97.25
2019-01-30T03:31:50.940Z,97.06
2019-01-30T03:32:50.898Z,97.16
2019-01-30T03:33:50.865Z,96.97
2019-01-30T03:34:50.826Z,96.78
2019-01-30T03:35:50.782Z,96.78
2019-01-30T03:36:50.741Z,96.88
2019-01-30T03:37:50.701Z,97.44
2019-01-30T03:38:50.673Z,97.25
2019-01-30T03:39:50.627Z,96.88
2019-01-30T03:40:50.592Z,96.97
2019-01-30T03:41:50.546Z,96.69
2019-01-30T03:42:50.508Z,97.16
2019-01-30T03:43:50.474Z,96.78
2019-01-30T03:44:50.444Z,96.78
2019-01-30T03:45:50.386Z,96.69
2019-01-30T03:46:50.348Z,97.16
2019-01-30T03:47:50.315Z,96.50
2019-01-30T03:48:50.273Z,96.88
2019-01-30T03:49:50.238Z,96.88
2019-01-30T03:50:50.193Z,96.78
2019-01-30T03:51:50.160Z,97.06
2019-01-30T03:52:50.244Z,96.97
2019-01-30T03:53:50.074Z,96.88
2019-01-30T03:54:50.033Z,96.69
2019-01-30T03:55:49.995Z,96.97
2019-01-30T03:56:49.953Z,96.88
2019-01-30T03:57:49.914Z,96.88
2019-01-30T03:58:49.878Z,96.12
2019-01-30T03:59:49.844Z,96.21
2019-01-30T04:00:49.798Z,97.16
2019-01-30T04:01:49.759Z,96.97
2019-01-30T04:02:49.731Z,96.88
2019-01-30T04:03:49.679Z,97.06
2019-01-30T04:04:49.645Z,97.06
2019-01-30T04:05:49.605Z,96.97
2019-01-30T04:06:49.569Z,97.16
2019-01-30T04:07:49.525Z,97.16
2019-01-30T04:08:49.475Z,97.06
2019-01-30T04:09:49.449Z,97.06
2019-01-30T04:10:49.415Z,96.97
2019-01-30T04:11:49.373Z,97.16
2019-01-30T04:12:49.339Z,96.88
2019-01-30T04:13:49.290Z,97.16
2019-01-30T04:14:49.244Z,97.25
2019-01-30T04:15:49.205Z,96.69
2019-01-30T04:16:49.184Z,96.97
2019-01-30T04:17:49.147Z,96.78
2019-01-30T04:18:49.090Z,96.73
2019-01-30T04:19:49.053Z,97.06
2019-01-30T04:20:49.021Z,96.31
2019-01-30T04:21:48.984Z,96.69
2019-01-30T04:22:48.940Z,96.12
2019-01-30T04:23:48.900Z,96.26
2019-01-30T04:24:48.855Z,97.20
2019-01-30T04:25:48.821Z,96.40
2019-01-30T04:26:48.787Z,96.64
2019-01-30T04:27:48.745Z,96.45
2019-01-30T04:28:48.696Z,96.16
2019-01-30T04:29:48.656Z,96.45
2019-01-30T04:30:48.626Z,96.26
2019-01-30T04:31:48.591Z,97.02
2019-01-30T04:32:48.556Z,96.45
2019-01-30T04:33:48.512Z,96.64
2019-01-30T04:34:48.465Z,96.54
2019-01-30T04:35:48.425Z,96.64
2019-01-30T04:36:48.391Z,96.64
2019-01-30T04:37:48.354Z,96.69
2019-01-30T04:38:48.320Z,96.35
2019-01-30T04:39:48.276Z,96.54
2019-01-30T04:40:48.227Z,96.54
2019-01-30T04:41:48.190Z,96.92
2019-01-30T04:42:48.142Z,96.35
2019-01-30T04:43:48.116Z,96.35
2019-01-30T04:44:48.072Z,96.07
2019-01-30T04:45:48.041Z,96.35
2019-01-30T04:46:48.000Z,96.26
2019-01-30T04:47:47.962Z,96.45
2019-01-30T04:48:47.911Z,96.26
2019-01-30T04:49:56.637Z,96.64
2019-01-30T04:51:52.282Z,96.35
2019-01-30T04:52:52.217Z,96.12
2019-01-30T04:53:52.177Z,96.16
2019-01-30T04:54:52.138Z,96.45
2019-01-30T04:55:52.102Z,96.12
2019-01-30T04:56:52.057Z,96.50
2019-01-30T04:57:52.029Z,96.35
2019-01-30T04:58:51.986Z,96.45
2019-01-30T04:59:51.938Z,96.16
2019-01-30T05:00:51.907Z,95.78
2019-01-30T05:01:51.866Z,96.26
2019-01-30T05:02:51.890Z,96.26
2019-01-30T05:03:51.778Z,96.26
2019-01-30T05:04:51.759Z,96.26
2019-01-30T05:05:51.710Z,95.97
2019-01-30T05:06:51.663Z,96.07
2019-01-30T05:07:51.632Z,96.35
2019-01-30T05:08:51.591Z,96.16
2019-01-30T05:09:51.553Z,96.26
2019-01-30T05:10:51.516Z,96.16
2019-01-30T05:11:51.466Z,96.16
2019-01-30T05:12:51.431Z,96.07
2019-01-30T05:13:51.401Z,95.69
2019-01-30T05:14:51.360Z,95.97
2019-01-30T05:15:51.321Z,95.88
2019-01-30T05:16:51.277Z,96.16
2019-01-30T05:17:51.241Z,96.26
2019-01-30T05:18:51.194Z,96.07
2019-01-30T05:19:51.157Z,96.45
2019-01-30T05:20:51.123Z,95.88
2019-01-30T05:21:51.078Z,96.07
2019-01-30T05:22:51.058Z,96.26
2019-01-30T05:23:51.003Z,96.07
2019-01-30T05:24:50.954Z,96.16
2019-01-30T05:25:50.930Z,96.07
2019-01-30T05:26:50.892Z,96.26
2019-01-30T05:27:50.842Z,95.69
2019-01-30T05:28:50.802Z,95.78
2019-01-30T05:29:50.778Z,96.26
2019-01-30T05:30:50.731Z,96.07
2019-01-30T05:32:01.026Z,96.07
2019-01-30T05:32:50.651Z,95.69
2019-01-30T05:33:50.618Z,95.78
2019-01-30T05:34:50.574Z,95.78
2019-01-30T05:35:50.534Z,96.07
2019-01-30T05:36:50.494Z,95.31
2019-01-30T05:37:51.361Z,95.78
2019-01-30T05:38:50.417Z,95.78
2019-01-30T05:39:50.383Z,95.31
2019-01-30T05:40:50.345Z,95.40
2019-01-30T05:41:50.300Z,96.07
2019-01-30T05:42:50.272Z,96.07
2019-01-30T05:43:50.216Z,95.97
2019-01-30T05:44:50.185Z,96.07
2019-01-30T05:45:50.145Z,95.88
2019-01-30T05:46:50.103Z,95.59
2019-01-30T05:47:50.073Z,95.88
2019-01-30T05:48:50.024Z,95.21
2019-01-30T05:49:50.026Z,95.50
2019-01-30T05:50:49.945Z,95.59
2019-01-30T05:51:49.909Z,95.88
2019-01-30T05:52:49.865Z,95.69
2019-01-30T05:53:49.825Z,95.88
2019-01-30T05:54:49.795Z,95.59
2019-01-30T05:55:49.758Z,96.07
2019-01-30T05:56:49.717Z,95.50
2019-01-30T05:57:49.679Z,95.69
2019-01-30T05:58:49.645Z,95.59
2019-01-30T05:59:49.599Z,96.16
2019-01-30T06:00:49.563Z,95.31
2019-01-30T06:01:49.519Z,95.12
2019-01-30T06:02:49.479Z,95.31
2019-01-30T06:03:49.441Z,95.21
2019-01-30T06:04:49.404Z,95.31
2019-01-30T06:05:49.364Z,95.31
2019-01-30T06:06:49.320Z,95.03
2019-01-30T06:07:49.294Z,95.03
2019-01-30T06:08:49.250Z,94.74
2019-01-30T06:09:49.209Z,95.12
2019-01-30T06:10:49.175Z,94.74
2019-01-30T06:11:49.129Z,94.65
2019-01-30T06:12:49.094Z,95.21
2019-01-30T06:13:49.046Z,95.21
2019-01-30T06:14:49.060Z,95.12
2019-01-30T06:15:48.976Z,95.12
2019-01-30T06:16:48.941Z,95.03
2019-01-30T06:17:48.904Z,94.93
2019-01-30T06:18:48.865Z,94.84
2019-01-30T06:19:48.815Z,94.65
2019-01-30T06:20:48.774Z,94.84
2019-01-30T06:21:48.744Z,94.93
2019-01-30T06:22:48.705Z,94.74
2019-01-30T06:23:48.666Z,94.93
2019-01-30T06:24:48.623Z,95.03
2019-01-30T06:25:48.584Z,95.50
2019-01-30T06:26:48.554Z,95.12
2019-01-30T06:27:48.516Z,95.59
2019-01-30T06:28:48.475Z,96.26
2019-01-30T06:29:48.436Z,96.16
2019-01-30T06:30:48.385Z,95.50
2019-01-30T06:31:48.346Z,95.78
2019-01-30T06:32:48.312Z,95.97
2019-01-30T06:33:48.277Z,95.97
2019-01-30T06:34:48.241Z,95.40
2019-01-30T06:35:48.190Z,95.59
2019-01-30T06:36:48.157Z,95.50
2019-01-30T06:37:48.123Z,94.27
2019-01-30T06:38:48.073Z,94.56
2019-01-30T06:39:48.040Z,94.37
2019-01-30T06:40:48.077Z,94.27
2019-01-30T06:41:47.956Z,93.89
2019-01-30T06:42:47.917Z,93.23
2019-01-30T06:43:47.887Z,93.23
2019-01-30T06:44:47.842Z,93.42
2019-01-30T06:45:47.835Z,93.42
2019-01-30T06:46:47.762Z,92.76
2019-01-30T06:47:47.736Z,93.23
2019-01-30T06:48:47.681Z,92.85
2019-01-30T06:49:47.651Z,93.13
2019-01-30T06:50:47.614Z,92.85
2019-01-30T06:51:47.573Z,92.57
2019-01-30T06:52:47.531Z,92.38
2019-01-30T06:53:47.491Z,92.38
2019-01-30T06:54:47.446Z,92.57
2019-01-30T06:55:47.434Z,92.38
2019-01-30T06:56:47.381Z,92.57
2019-01-30T06:57:47.335Z,92.00
2019-01-30T06:58:47.296Z,92.47
2019-01-30T06:59:47.262Z,91.77
2019-01-30T07:00:47.224Z,91.91
2019-01-30T07:01:47.173Z,92.10
2019-01-30T07:02:47.142Z,92.52
2019-01-30T07:03:47.131Z,91.29
2019-01-30T07:04:47.061Z,91.29
2019-01-30T07:05:47.029Z,90.91
2019-01-30T07:06:46.992Z,91.29
2019-01-30T07:07:46.946Z,91.20
2019-01-30T07:08:46.907Z,91.48
2019-01-30T07:09:46.872Z,91.58
2019-01-30T07:10:46.827Z,91.29
2019-01-30T07:11:46.789Z,91.48
2019-01-30T07:12:46.774Z,91.39
2019-01-30T07:13:46.714Z,91.58
2019-01-30T07:14:46.672Z,91.67
2019-01-30T07:15:46.628Z,91.67
2019-01-30T07:16:46.600Z,91.77
2019-01-30T07:17:46.550Z,91.48
2019-01-30T07:18:46.502Z,91.53
2019-01-30T07:19:46.477Z,91.05
2019-01-30T07:20:46.432Z,91.10
2019-01-30T07:21:46.392Z,91.48
2019-01-30T07:22:46.363Z,91.29
2019-01-30T07:23:46.318Z,91.01
2019-01-30T07:24:46.275Z,91.10
2019-01-30T07:25:46.239Z,91.10
2019-01-30T07:26:46.224Z,91.29
2019-01-30T07:27:46.163Z,91.20
2019-01-30T07:28:46.125Z,91.01
2019-01-30T07:29:46.085Z,91.10
2019-01-30T07:30:46.040Z,90.91
2019-01-30T07:31:46.006Z,90.91
2019-01-30T07:32:45.964Z,90.91
2019-01-30T07:33:45.926Z,90.72
2019-01-30T07:34:45.875Z,90.63
2019-01-30T07:35:45.849Z,90.16
2019-01-30T07:36:45.803Z,90.53
2019-01-30T07:37:45.773Z,90.25
2019-01-30T07:38:45.729Z,90.63
2019-01-30T07:39:45.697Z,90.06
2019-01-30T07:40:45.652Z,89.97
2019-01-30T07:41:45.606Z,89.87
2019-01-30T07:42:45.569Z,89.78
2019-01-30T07:43:45.535Z,89.87
2019-01-30T07:44:50.749Z,90.34
2019-01-30T07:45:45.455Z,89.78
2019-01-30T07:46:45.416Z,89.87
2019-01-30T07:47:45.373Z,89.78
2019-01-30T07:48:45.334Z,89.97
2019-01-30T07:49:45.296Z,90.25
2019-01-30T07:50:45.263Z,90.72
2019-01-30T07:51:45.224Z,90.25
2019-01-30T07:52:45.189Z,89.97
2019-01-30T07:53:45.137Z,89.97
2019-01-30T07:54:45.095Z,90.34
2019-01-30T07:55:45.058Z,89.78
2019-01-30T07:56:45.024Z,89.78
2019-01-30T07:57:44.979Z,90.53
2019-01-30T07:58:44.946Z,90.82
2019-01-30T07:59:44.905Z,89.78
2019-01-30T08:00:44.874Z,90.63
2019-01-30T08:01:44.834Z,89.69
2019-01-30T08:02:52.928Z,89.78
2019-01-30T08:03:44.736Z,89.97
2019-01-30T08:04:44.710Z,91.10
2019-01-30T08:05:44.666Z,90.16
2019-01-30T08:06:44.631Z,89.31
2019-01-30T08:07:44.597Z,90.16
2019-01-30T08:08:44.551Z,89.97
2019-01-30T08:09:44.505Z,89.87
2019-01-30T08:10:44.467Z,90.34
2019-01-30T08:11:44.430Z,89.78
2019-01-30T08:12:44.385Z,90.30
2019-01-30T08:13:44.352Z,90.63
2019-01-30T08:14:44.310Z,90.72
2019-01-30T08:15:44.285Z,90.63
2019-01-30T08:16:44.230Z,90.72
2019-01-30T08:17:44.199Z,91.10
2019-01-30T08:18:44.153Z,90.82
2019-01-30T08:19:44.184Z,91.29
2019-01-30T08:20:44.081Z,91.29
2019-01-30T08:21:44.038Z,91.24
2019-01-30T08:22:44.091Z,91.34
2019-01-30T08:23:44.081Z,91.43
2019-01-30T08:24:44.185Z,91.62
2019-01-30T08:25:44.338Z,91.91
2019-01-30T08:26:44.309Z,91.58
2019-01-30T08:27:44.152Z,91.05
2019-01-30T08:28:43.895Z,91.58
2019-01-30T08:29:43.940Z,91.53
2019-01-30T08:30:44.027Z,91.29
2019-01-30T08:31:44.045Z,91.29
2019-01-30T08:32:43.645Z,90.53
2019-01-30T08:33:43.566Z,90.44
2019-01-30T08:34:43.531Z,89.97
2019-01-30T08:35:43.496Z,90.06
2019-01-30T08:36:43.448Z,90.16
2019-01-30T08:37:45.807Z,91.10
2019-01-30T08:38:43.364Z,90.34
2019-01-30T08:39:43.331Z,90.72
2019-01-30T08:40:43.287Z,89.97
2019-01-30T08:41:43.252Z,90.72
2019-01-30T08:42:43.217Z,90.34
2019-01-30T08:43:43.177Z,90.25
2019-01-30T08:44:47.006Z,90.44
2019-01-30T08:45:43.093Z,91.10
2019-01-30T08:46:43.061Z,89.69
2019-01-30T08:47:43.023Z,89.97
2019-01-30T08:48:42.982Z,90.25
2019-01-30T08:49:42.939Z,90.44
2019-01-30T08:50:42.915Z,89.87
2019-01-30T08:51:42.858Z,89.78
2019-01-30T08:52:42.826Z,91.39
2019-01-30T08:53:42.784Z,90.63
2019-01-30T08:54:42.749Z,90.72
2019-01-30T08:55:42.709Z,89.78
2019-01-30T08:56:52.328Z,89.78
2019-01-30T08:57:42.632Z,89.97
2019-01-30T08:58:42.591Z,89.78
2019-01-30T08:59:42.546Z,90.25
2019-01-30T09:00:42.504Z,90.06
2019-01-30T09:01:42.471Z,89.97
2019-01-30T09:02:42.428Z,89.69
2019-01-30T09:03:42.398Z,90.44
2019-01-30T09:04:42.353Z,90.72
2019-01-30T09:05:42.313Z,89.87
2019-01-30T09:06:42.287Z,89.69
2019-01-30T09:07:44.278Z,89.59
2019-01-30T09:08:42.194Z,90.11
2019-01-30T09:09:42.155Z,90.77
2019-01-30T09:10:42.114Z,91.34
2019-01-30T09:11:42.079Z,91.24
2019-01-30T09:12:42.035Z,91.62
2019-01-30T09:13:41.993Z,91.43
2019-01-30T09:14:41.959Z,92.29
2019-01-30T09:15:41.924Z,91.53
2019-01-30T09:16:41.885Z,91.43
2019-01-30T09:17:41.845Z,91.62
2019-01-30T09:18:41.805Z,92.29
2019-01-30T09:19:41.763Z,92.29
2019-01-30T09:20:41.720Z,92.47
2019-01-30T09:21:41.681Z,92.47
2019-01-30T09:22:41.653Z,91.81
2019-01-30T09:23:41.604Z,92.19
2019-01-30T09:24:41.563Z,92.38
2019-01-30T09:25:41.525Z,92.38
2019-01-30T09:26:41.491Z,92.10
2019-01-30T09:27:41.458Z,92.38
2019-01-30T09:28:41.415Z,92.66
2019-01-30T09:29:41.376Z,93.13
2019-01-30T09:30:41.331Z,93.32
2019-01-30T09:31:41.294Z,92.47
2019-01-30T09:32:41.261Z,93.80
2019-01-30T09:33:41.216Z,93.23
2019-01-30T09:34:41.173Z,93.04
2019-01-30T09:35:41.189Z,93.23
2019-01-30T09:36:41.149Z,93.51
2019-01-30T09:37:41.064Z,92.94
2019-01-30T09:38:41.028Z,92.94
2019-01-30T09:39:40.981Z,93.04
2019-01-30T09:40:40.944Z,93.23
2019-01-30T09:41:40.917Z,93.61
2019-01-30T09:42:40.865Z,94.08
2019-01-30T09:43:40.826Z,93.80
2019-01-30T09:44:40.796Z,93.04
2019-01-30T09:45:40.756Z,93.32
2019-01-30T09:46:40.733Z,92.94
2019-01-30T09:47:40.679Z,93.51
2019-01-30T09:48:40.636Z,93.13
2019-01-30T09:49:40.684Z,93.32
2019-01-30T09:50:40.560Z,92.76
2019-01-30T09:51:40.514Z,93.23
2019-01-30T09:52:40.515Z,93.13
2019-01-30T09:53:40.447Z,92.85
2019-01-30T09:54:40.414Z,93.42
2019-01-30T09:55:40.364Z,92.85
2019-01-30T09:56:40.317Z,93.61
2019-01-30T09:57:40.275Z,94.18
2019-01-30T09:58:40.236Z,93.23
2019-01-30T09:59:40.201Z,92.85
2019-01-30T10:00:40.168Z,92.47
2019-01-30T10:01:40.129Z,92.76
2019-01-30T10:02:40.082Z,92.10
2019-01-30T10:03:40.051Z,92.10
2019-01-30T10:04:40.008Z,92.19
2019-01-30T10:05:40.083Z,91.81
2019-01-30T10:06:39.931Z,91.72
2019-01-30T10:07:39.891Z,91.62
2019-01-30T10:08:39.861Z,91.53
2019-01-30T10:09:39.817Z,91.72
2019-01-30T10:10:39.779Z,90.77
2019-01-30T10:11:39.740Z,90.01
2019-01-30T10:12:39.690Z,91.05
2019-01-30T10:13:39.656Z,91.34
2019-01-30T10:14:39.625Z,90.77
2019-01-30T10:15:39.606Z,90.30
2019-01-30T10:16:39.536Z,89.82
2019-01-30T10:17:39.505Z,89.82
2019-01-30T10:18:39.462Z,89.92
2019-01-30T10:19:41.799Z,89.35
2019-01-30T10:20:39.382Z,89.63
2019-01-30T10:21:39.346Z,90.86
2019-01-30T10:22:39.307Z,91.05
2019-01-30T10:23:39.268Z,90.11
2019-01-30T10:24:39.223Z,90.20
2019-01-30T10:25:39.186Z,90.01
2019-01-30T10:26:39.148Z,90.30
2019-01-30T10:27:39.108Z,89.63
2019-01-30T10:28:39.073Z,88.68
2019-01-30T10:29:39.033Z,89.06
2019-01-30T10:30:39.002Z,88.78
2019-01-30T10:31:38.963Z,88.02
2019-01-30T10:32:38.919Z,88.78
2019-01-30T10:33:46.320Z,88.87
2019-01-30T10:34:38.849Z,89.06
2019-01-30T10:35:38.803Z,89.06
2019-01-30T10:36:38.758Z,88.02
2019-01-30T10:37:38.725Z,87.84
2019-01-30T10:38:38.688Z,87.17
2019-01-30T10:39:38.644Z,88.31
2019-01-30T10:40:38.605Z,88.40
2019-01-30T10:41:38.559Z,88.49
2019-01-30T10:42:38.537Z,90.30
2019-01-30T10:43:38.494Z,88.49
2019-01-30T10:44:38.452Z,87.17
2019-01-30T10:45:38.548Z,86.89
2019-01-30T10:46:38.375Z,87.08
2019-01-30T10:47:38.335Z,89.63
2019-01-30T10:48:38.290Z,90.39
2019-01-30T10:49:38.257Z,90.20
2019-01-30T10:50:38.211Z,89.73
2019-01-30T10:51:38.178Z,89.16
2019-01-30T10:52:38.142Z,89.16
2019-01-30T10:53:38.108Z,89.54
2019-01-30T10:54:38.068Z,88.87
2019-01-30T10:55:38.019Z,88.12
2019-01-30T10:56:37.986Z,87.88
2019-01-30T10:57:37.995Z,87.78
2019-01-30T10:58:37.911Z,87.59
2019-01-30T10:59:37.870Z,90.63
2019-01-30T11:00:37.835Z,91.38
2019-01-30T11:01:37.792Z,90.81
2019-01-30T11:02:37.760Z,90.15
2019-01-30T11:03:37.721Z,89.87
2019-01-30T11:04:37.674Z,89.11
2019-01-30T11:05:37.639Z,89.30
2019-01-30T11:06:37.595Z,89.11
2019-01-30T11:07:37.558Z,89.87
2019-01-30T11:08:37.522Z,91.95
2019-01-30T11:09:37.489Z,91.86
2019-01-30T11:10:37.445Z,91.67
2019-01-30T11:11:37.410Z,91.29
2019-01-30T11:12:37.377Z,90.81
2019-01-30T11:13:37.330Z,91.67
2019-01-30T11:14:37.288Z,91.48
2019-01-30T11:15:37.248Z,91.19
2019-01-30T11:16:37.211Z,91.57
2019-01-30T11:17:37.174Z,91.67
2019-01-30T11:18:37.130Z,91.76
2019-01-30T11:19:37.104Z,92.43
2019-01-30T11:20:37.055Z,91.76
2019-01-30T11:21:37.028Z,92.24
2019-01-30T11:22:36.994Z,91.29
2019-01-30T11:23:36.946Z,91.76
2019-01-30T11:24:36.904Z,91.48
2019-01-30T11:25:36.871Z,91.29
2019-01-30T11:26:36.844Z,91.38
2019-01-30T11:27:36.796Z,91.57
2019-01-30T11:28:36.751Z,91.48
2019-01-30T11:29:36.724Z,91.76
2019-01-30T11:30:36.670Z,91.67
2019-01-30T11:31:36.639Z,90.58
2019-01-30T11:32:36.601Z,90.25
2019-01-30T11:33:36.567Z,91.00
2019-01-30T11:34:36.522Z,90.81
2019-01-30T11:35:36.489Z,90.25
2019-01-30T11:36:36.441Z,90.25
2019-01-30T11:37:36.409Z,90.96
2019-01-30T11:38:36.365Z,90.15
2019-01-30T11:39:36.334Z,90.34
2019-01-30T11:40:36.295Z,90.06
2019-01-30T11:41:36.256Z,90.63
2019-01-30T11:42:36.207Z,90.15
2019-01-30T11:43:36.176Z,89.68
2019-01-30T11:44:36.137Z,91.19
2019-01-30T11:45:36.097Z,92.43
2019-01-30T11:46:36.057Z,91.67
2019-01-30T11:47:36.010Z,91.10
2019-01-30T11:48:35.990Z,90.72
2019-01-30T11:49:35.945Z,91.29
2019-01-30T11:50:35.912Z,91.76
2019-01-30T11:51:35.870Z,91.57
2019-01-30T11:52:35.826Z,91.00
2019-01-30T11:53:35.807Z,90.91
2019-01-30T11:54:38.853Z,90.81
2019-01-30T11:55:35.716Z,91.00
2019-01-30T11:56:35.675Z,91.57
2019-01-30T11:57:35.632Z,91.10
2019-01-30T11:58:35.608Z,91.38
2019-01-30T11:59:35.595Z,92.05
2019-01-30T12:00:35.521Z,92.43
2019-01-30T12:01:35.477Z,91.48
2019-01-30T12:02:35.448Z,93.27
2019-01-30T12:03:35.403Z,93.18
2019-01-30T12:04:35.368Z,93.27
2019-01-30T12:05:35.321Z,92.33
2019-01-30T12:06:35.288Z,93.18
2019-01-30T12:07:35.259Z,93.23
2019-01-30T12:08:35.224Z,92.90
2019-01-30T12:09:35.177Z,93.89
2019-01-30T12:10:35.138Z,93.51
2019-01-30T12:11:35.103Z,93.23
2019-01-30T12:12:35.067Z,93.51
2019-01-30T12:13:35.027Z,93.23
2019-01-30T12:14:34.997Z,93.32
2019-01-30T12:15:34.949Z,93.61
2019-01-30T12:16:34.910Z,94.08
2019-01-30T12:17:34.877Z,93.70
2019-01-30T12:18:34.836Z,94.37
2019-01-30T12:19:34.789Z,94.79
2019-01-30T12:20:34.752Z,93.99
2019-01-30T12:21:34.721Z,93.51
2019-01-30T12:22:34.676Z,93.51
2019-01-30T12:23:34.639Z,93.42
2019-01-30T12:24:34.608Z,94.18
2019-01-30T12:25:34.559Z,94.60
2019-01-30T12:26:34.526Z,93.46
2019-01-30T12:27:34.498Z,92.05
2019-01-30T12:28:34.454Z,91.48
2019-01-30T12:29:34.413Z,91.57
2019-01-30T12:30:34.379Z,91.76
2019-01-30T12:31:34.343Z,91.86
2019-01-30T12:32:34.299Z,91.57
2019-01-30T12:33:34.259Z,91.24
2019-01-30T12:34:34.223Z,90.67
2019-01-30T12:35:34.184Z,90.34
2019-01-30T12:36:34.149Z,90.15
2019-01-30T12:37:34.113Z,90.91
2019-01-30T12:38:34.073Z,91.67
2019-01-30T12:39:34.024Z,90.86
2019-01-30T12:40:33.984Z,90.25
2019-01-30T12:41:35.763Z,90.39
2019-01-30T12:42:33.911Z,90.20
2019-01-30T12:43:33.883Z,88.78
2019-01-30T12:44:33.838Z,88.49
2019-01-30T12:45:33.803Z,89.63
2019-01-30T12:46:33.755Z,88.78
2019-01-30T12:47:33.724Z,88.12
2019-01-30T12:48:33.676Z,87.93
2019-01-30T12:49:33.650Z,87.93
2019-01-30T12:50:33.601Z,87.84
2019-01-30T12:51:36.034Z,88.02
2019-01-30T12:52:33.530Z,87.08
2019-01-30T12:53:34.896Z,88.40